sensor_id;sensor_type;location;lat;lon;timestamp;temperature;humidity
41939;DHT22;23057;48.554;14.454;2022-07-29T00:00:13;16.10;99.90
41939;DHT22;23057;48.554;14.454;2022-07-29T00:02:44;16.10;99.90
41939;DHT22;23057;48.554;14.454;2022-07-29T00:05:15;16.10;99.90
41939;DHT22;23057;48.554;14.454;2022-07-29T00:07:46;16.00;99.90
41939;DHT22;23057;48.554;14.454;2022-07-29T00:10:17;16.00;99.90
41939;DHT22;23057;48.554;14.454;2022-07-29T00:12:47;16.00;99.90
41939;DHT22;23057;48.554;14.454;2022-07-29T00:15:18;16.00;99.90
41939;DHT22;23057;48.554;14.454;2022-07-29T00:17:49;16.00;99.90
41939;DHT22;23057;48.554;14.454;2022-07-29T00:20:20;15.90;52.60
41939;DHT22;23057;48.554;14.454;2022-07-29T00:22:51;16.00;1.00
41939;DHT22;23057;48.554;14.454;2022-07-29T00:25:22;16.00;1.00
41939;DHT22;23057;48.554;14.454;2022-07-29T00:27:53;16.00;1.00
41939;DHT22;23057;48.554;14.454;2022-07-29T00:30:24;16.00;99.90
41939;DHT22;23057;48.554;14.454;2022-07-29T00:32:54;15.90;99.90
41939;DHT22;23057;48.554;14.454;2022-07-29T00:35:25;15.90;99.90
41939;DHT22;23057;48.554;14.454;2022-07-29T00:38:16;15.80;99.90
41939;DHT22;23057;48.554;14.454;2022-07-29T00:40:49;15.80;1.00
41939;DHT22;23057;48.554;14.454;2022-07-29T00:43:19;15.60;34.60
41939;DHT22;23057;48.554;14.454;2022-07-29T00:45:50;15.50;99.90
41939;DHT22;23057;48.554;14.454;2022-07-29T00:48:21;15.40;99.90
41939;DHT22;23057;48.554;14.454;2022-07-29T00:50:52;15.30;99.90
41939;DHT22;23057;48.554;14.454;2022-07-29T00:53:24;15.30;99.90
41939;DHT22;23057;48.554;14.454;2022-07-29T00:55:57;15.30;99.90
41939;DHT22;23057;48.554;14.454;2022-07-29T00:58:30;15.20;1.00
41939;DHT22;23057;48.554;14.454;2022-07-29T01:01:01;15.20;1.00
41939;DHT22;23057;48.554;14.454;2022-07-29T01:03:32;15.20;1.00
41939;DHT22;23057;48.554;14.454;2022-07-29T01:06:03;15.20;1.00
41939;DHT22;23057;48.554;14.454;2022-07-29T01:08:35;15.10;1.00
41939;DHT22;23057;48.554;14.454;2022-07-29T01:11:07;15.10;1.00
41939;DHT22;23057;48.554;14.454;2022-07-29T01:13:39;15.10;1.00
41939;DHT22;23057;48.554;14.454;2022-07-29T01:16:17;15.10;1.00
41939;DHT22;23057;48.554;14.454;2022-07-29T01:19:06;15.10;1.00
41939;DHT22;23057;48.554;14.454;2022-07-29T01:25:12;15.20;99.90
41939;DHT22;23057;48.554;14.454;2022-07-29T01:31:19;15.30;96.80
41939;DHT22;23057;48.554;14.454;2022-07-29T01:33:59;15.20;99.90
41939;DHT22;23057;48.554;14.454;2022-07-29T01:36:45;15.20;99.90
41939;DHT22;23057;48.554;14.454;2022-07-29T01:39:31;15.20;99.90
41939;DHT22;23057;48.554;14.454;2022-07-29T01:45:18;15.20;99.90
41939;DHT22;23057;48.554;14.454;2022-07-29T01:48:00;15.10;99.90
41939;DHT22;23057;48.554;14.454;2022-07-29T01:51:07;15.10;99.90
41939;DHT22;23057;48.554;14.454;2022-07-29T01:53:48;15.10;99.90
41939;DHT22;23057;48.554;14.454;2022-07-29T01:56:31;15.10;99.90
41939;DHT22;23057;48.554;14.454;2022-07-29T01:59:06;15.10;99.90
41939;DHT22;23057;48.554;14.454;2022-07-29T02:01:39;15.10;99.90
41939;DHT22;23057;48.554;14.454;2022-07-29T02:04:14;15.10;99.90
41939;DHT22;23057;48.554;14.454;2022-07-29T02:06:49;15.10;99.90
41939;DHT22;23057;48.554;14.454;2022-07-29T02:09:23;15.20;99.90
41939;DHT22;23057;48.554;14.454;2022-07-29T02:11:56;15.10;99.90
41939;DHT22;23057;48.554;14.454;2022-07-29T02:14:34;15.10;99.90
41939;DHT22;23057;48.554;14.454;2022-07-29T02:17:10;15.30;99.90
41939;DHT22;23057;48.554;14.454;2022-07-29T02:19:43;15.30;1.00
41939;DHT22;23057;48.554;14.454;2022-07-29T02:22:17;15.40;99.90
41939;DHT22;23057;48.554;14.454;2022-07-29T02:24:50;15.40;1.00
41939;DHT22;23057;48.554;14.454;2022-07-29T02:27:23;15.50;99.90
41939;DHT22;23057;48.554;14.454;2022-07-29T02:29:58;15.50;99.90
41939;DHT22;23057;48.554;14.454;2022-07-29T02:32:34;15.50;1.00
41939;DHT22;23057;48.554;14.454;2022-07-29T02:35:08;15.50;1.00
41939;DHT22;23057;48.554;14.454;2022-07-29T02:37:41;15.50;99.90
41939;DHT22;23057;48.554;14.454;2022-07-29T02:40:36;15.50;1.00
41939;DHT22;23057;48.554;14.454;2022-07-29T02:43:12;15.20;99.90
41939;DHT22;23057;48.554;14.454;2022-07-29T02:45:44;15.00;99.90
41939;DHT22;23057;48.554;14.454;2022-07-29T02:48:22;14.90;99.90
41939;DHT22;23057;48.554;14.454;2022-07-29T02:51:28;15.00;99.90
41939;DHT22;23057;48.554;14.454;2022-07-29T02:54:34;15.10;99.90
41939;DHT22;23057;48.554;14.454;2022-07-29T02:57:20;15.30;1.00
41939;DHT22;23057;48.554;14.454;2022-07-29T03:00:06;15.30;32.00
41939;DHT22;23057;48.554;14.454;2022-07-29T03:02:40;15.30;99.90
41939;DHT22;23057;48.554;14.454;2022-07-29T03:05:17;15.30;99.90
41939;DHT22;23057;48.554;14.454;2022-07-29T03:07:53;15.40;99.90
41939;DHT22;23057;48.554;14.454;2022-07-29T03:10:28;15.40;90.60
41939;DHT22;23057;48.554;14.454;2022-07-29T03:13:01;15.30;98.00
41939;DHT22;23057;48.554;14.454;2022-07-29T03:15:32;15.30;95.90
41939;DHT22;23057;48.554;14.454;2022-07-29T03:18:05;15.30;99.90
41939;DHT22;23057;48.554;14.454;2022-07-29T03:20:37;15.30;99.90
41939;DHT22;23057;48.554;14.454;2022-07-29T03:23:09;15.30;99.90
41939;DHT22;23057;48.554;14.454;2022-07-29T03:25:40;15.30;99.90
41939;DHT22;23057;48.554;14.454;2022-07-29T03:28:11;15.30;99.90
41939;DHT22;23057;48.554;14.454;2022-07-29T03:30:41;15.30;99.90
41939;DHT22;23057;48.554;14.454;2022-07-29T03:33:12;15.30;99.90
41939;DHT22;23057;48.554;14.454;2022-07-29T03:35:43;15.30;99.90
41939;DHT22;23057;48.554;14.454;2022-07-29T03:38:14;15.30;99.90
41939;DHT22;23057;48.554;14.454;2022-07-29T03:40:49;15.40;99.90
41939;DHT22;23057;48.554;14.454;2022-07-29T03:43:30;15.40;99.90
41939;DHT22;23057;48.554;14.454;2022-07-29T03:46:09;15.40;99.90
41939;DHT22;23057;48.554;14.454;2022-07-29T03:48:42;15.40;99.90
41939;DHT22;23057;48.554;14.454;2022-07-29T03:51:20;15.40;89.10
41939;DHT22;23057;48.554;14.454;2022-07-29T03:53:51;15.50;99.90
41939;DHT22;23057;48.554;14.454;2022-07-29T03:56:23;15.70;31.50
41939;DHT22;23057;48.554;14.454;2022-07-29T03:58:58;15.90;99.90
41939;DHT22;23057;48.554;14.454;2022-07-29T04:01:32;16.10;99.90
41939;DHT22;23057;48.554;14.454;2022-07-29T04:04:04;16.30;99.90
41939;DHT22;23057;48.554;14.454;2022-07-29T04:06:42;16.60;74.40
41939;DHT22;23057;48.554;14.454;2022-07-29T04:09:15;16.80;1.00
41939;DHT22;23057;48.554;14.454;2022-07-29T04:11:46;16.90;1.00
41939;DHT22;23057;48.554;14.454;2022-07-29T04:14:16;17.10;1.00
41939;DHT22;23057;48.554;14.454;2022-07-29T04:16:47;17.00;1.00
41939;DHT22;23057;48.554;14.454;2022-07-29T04:19:18;16.60;1.00
41939;DHT22;23057;48.554;14.454;2022-07-29T04:21:49;16.40;99.90
41939;DHT22;23057;48.554;14.454;2022-07-29T04:24:20;16.40;99.90
41939;DHT22;23057;48.554;14.454;2022-07-29T04:26:50;16.40;99.90
41939;DHT22;23057;48.554;14.454;2022-07-29T04:29:23;16.90;99.90
41939;DHT22;23057;48.554;14.454;2022-07-29T04:31:53;17.10;1.00
41939;DHT22;23057;48.554;14.454;2022-07-29T04:34:24;16.90;1.00
41939;DHT22;23057;48.554;14.454;2022-07-29T04:36:55;16.70;69.50
41939;DHT22;23057;48.554;14.454;2022-07-29T04:39:26;16.60;99.90
41939;DHT22;23057;48.554;14.454;2022-07-29T04:41:57;16.50;99.90
41939;DHT22;23057;48.554;14.454;2022-07-29T04:44:27;16.50;37.80
41939;DHT22;23057;48.554;14.454;2022-07-29T04:46:58;16.70;1.00
41939;DHT22;23057;48.554;14.454;2022-07-29T04:49:30;16.90;1.00
41939;DHT22;23057;48.554;14.454;2022-07-29T04:52:01;16.90;1.00
41939;DHT22;23057;48.554;14.454;2022-07-29T04:54:31;17.10;99.90
41939;DHT22;23057;48.554;14.454;2022-07-29T04:57:03;17.30;1.00
41939;DHT22;23057;48.554;14.454;2022-07-29T04:59:34;18.00;99.90
41939;DHT22;23057;48.554;14.454;2022-07-29T05:02:04;19.50;99.90
41939;DHT22;23057;48.554;14.454;2022-07-29T05:04:35;20.70;1.00
41939;DHT22;23057;48.554;14.454;2022-07-29T05:07:06;20.50;1.00
41939;DHT22;23057;48.554;14.454;2022-07-29T05:09:37;20.10;1.00
41939;DHT22;23057;48.554;14.454;2022-07-29T05:12:08;19.80;1.00
41939;DHT22;23057;48.554;14.454;2022-07-29T05:14:40;19.00;99.90
41939;DHT22;23057;48.554;14.454;2022-07-29T05:17:10;18.60;92.00
41939;DHT22;23057;48.554;14.454;2022-07-29T05:19:41;18.40;99.90
41939;DHT22;23057;48.554;14.454;2022-07-29T05:22:12;18.30;99.90
41939;DHT22;23057;48.554;14.454;2022-07-29T05:24:43;18.10;99.90
41939;DHT22;23057;48.554;14.454;2022-07-29T05:27:14;18.10;99.90
41939;DHT22;23057;48.554;14.454;2022-07-29T05:29:45;18.00;99.90
41939;DHT22;23057;48.554;14.454;2022-07-29T05:32:15;18.00;99.90
41939;DHT22;23057;48.554;14.454;2022-07-29T05:34:46;17.90;99.90
41939;DHT22;23057;48.554;14.454;2022-07-29T05:37:20;17.90;99.90
41939;DHT22;23057;48.554;14.454;2022-07-29T05:39:51;17.90;99.90
41939;DHT22;23057;48.554;14.454;2022-07-29T05:42:22;17.90;1.00
41939;DHT22;23057;48.554;14.454;2022-07-29T05:44:53;17.90;1.00
41939;DHT22;23057;48.554;14.454;2022-07-29T05:47:24;17.70;1.00
41939;DHT22;23057;48.554;14.454;2022-07-29T05:49:55;17.70;1.00
41939;DHT22;23057;48.554;14.454;2022-07-29T05:52:26;17.60;1.00
41939;DHT22;23057;48.554;14.454;2022-07-29T05:54:57;17.60;1.00
41939;DHT22;23057;48.554;14.454;2022-07-29T05:57:28;17.70;1.00
41939;DHT22;23057;48.554;14.454;2022-07-29T05:59:59;17.60;99.90
41939;DHT22;23057;48.554;14.454;2022-07-29T06:02:30;17.50;1.00
41939;DHT22;23057;48.554;14.454;2022-07-29T06:05:00;17.60;1.00
41939;DHT22;23057;48.554;14.454;2022-07-29T06:07:31;17.60;1.00
41939;DHT22;23057;48.554;14.454;2022-07-29T06:10:04;17.60;1.00
41939;DHT22;23057;48.554;14.454;2022-07-29T06:12:39;17.60;1.00
41939;DHT22;23057;48.554;14.454;2022-07-29T06:15:10;17.70;1.00
41939;DHT22;23057;48.554;14.454;2022-07-29T06:17:41;17.70;1.00
41939;DHT22;23057;48.554;14.454;2022-07-29T06:20:12;17.70;46.90
41939;DHT22;23057;48.554;14.454;2022-07-29T06:22:42;17.70;58.50
41939;DHT22;23057;48.554;14.454;2022-07-29T06:25:14;17.70;71.60
41939;DHT22;23057;48.554;14.454;2022-07-29T06:27:44;17.80;14.30
41939;DHT22;23057;48.554;14.454;2022-07-29T06:30:15;17.90;5.90
41939;DHT22;23057;48.554;14.454;2022-07-29T06:32:46;17.90;1.00
41939;DHT22;23057;48.554;14.454;2022-07-29T06:35:17;17.90;1.00
41939;DHT22;23057;48.554;14.454;2022-07-29T06:37:48;17.90;45.20
41939;DHT22;23057;48.554;14.454;2022-07-29T06:40:19;17.90;1.00
41939;DHT22;23057;48.554;14.454;2022-07-29T06:43:09;17.90;1.00
41939;DHT22;23057;48.554;14.454;2022-07-29T06:45:40;18.00;1.00
41939;DHT22;23057;48.554;14.454;2022-07-29T06:48:13;18.10;1.00
41939;DHT22;23057;48.554;14.454;2022-07-29T06:50:43;18.10;1.00
41939;DHT22;23057;48.554;14.454;2022-07-29T06:53:14;18.20;1.00
41939;DHT22;23057;48.554;14.454;2022-07-29T06:55:46;18.10;1.00
41939;DHT22;23057;48.554;14.454;2022-07-29T06:58:17;18.10;1.00
41939;DHT22;23057;48.554;14.454;2022-07-29T07:00:50;18.20;1.00
41939;DHT22;23057;48.554;14.454;2022-07-29T07:03:21;18.30;1.00
41939;DHT22;23057;48.554;14.454;2022-07-29T07:05:53;18.20;1.00
41939;DHT22;23057;48.554;14.454;2022-07-29T07:08:25;18.30;1.00
41939;DHT22;23057;48.554;14.454;2022-07-29T07:10:56;18.30;1.00
41939;DHT22;23057;48.554;14.454;2022-07-29T07:13:27;18.30;99.90
41939;DHT22;23057;48.554;14.454;2022-07-29T07:16:01;18.30;99.90
41939;DHT22;23057;48.554;14.454;2022-07-29T07:18:32;18.40;99.90
41939;DHT22;23057;48.554;14.454;2022-07-29T07:21:03;18.50;99.90
41939;DHT22;23057;48.554;14.454;2022-07-29T07:23:35;18.50;99.90
41939;DHT22;23057;48.554;14.454;2022-07-29T07:26:06;18.40;99.90
41939;DHT22;23057;48.554;14.454;2022-07-29T07:28:36;18.50;99.90
41939;DHT22;23057;48.554;14.454;2022-07-29T07:31:07;18.70;99.90
41939;DHT22;23057;48.554;14.454;2022-07-29T07:33:39;18.70;99.90
41939;DHT22;23057;48.554;14.454;2022-07-29T07:36:10;18.80;99.90
41939;DHT22;23057;48.554;14.454;2022-07-29T07:38:41;18.90;99.90
41939;DHT22;23057;48.554;14.454;2022-07-29T07:41:12;19.10;99.90
41939;DHT22;23057;48.554;14.454;2022-07-29T07:43:42;19.20;99.90
41939;DHT22;23057;48.554;14.454;2022-07-29T07:46:13;19.30;99.90
41939;DHT22;23057;48.554;14.454;2022-07-29T07:48:46;19.30;99.90
41939;DHT22;23057;48.554;14.454;2022-07-29T07:51:17;19.30;99.90
41939;DHT22;23057;48.554;14.454;2022-07-29T07:53:48;19.60;99.90
41939;DHT22;23057;48.554;14.454;2022-07-29T07:56:22;19.80;93.90
41939;DHT22;23057;48.554;14.454;2022-07-29T07:58:53;20.00;38.30
41939;DHT22;23057;48.554;14.454;2022-07-29T08:01:24;20.10;69.60
41939;DHT22;23057;48.554;14.454;2022-07-29T08:03:54;20.30;99.90
41939;DHT22;23057;48.554;14.454;2022-07-29T08:06:25;20.40;1.00
41939;DHT22;23057;48.554;14.454;2022-07-29T08:08:56;20.30;27.50
41939;DHT22;23057;48.554;14.454;2022-07-29T08:11:27;20.30;1.00
41939;DHT22;23057;48.554;14.454;2022-07-29T08:13:58;20.10;1.00
41939;DHT22;23057;48.554;14.454;2022-07-29T08:16:29;19.90;1.00
41939;DHT22;23057;48.554;14.454;2022-07-29T08:18:59;20.00;1.00
41939;DHT22;23057;48.554;14.454;2022-07-29T08:21:30;19.80;1.00
41939;DHT22;23057;48.554;14.454;2022-07-29T08:24:01;19.80;55.80
41939;DHT22;23057;48.554;14.454;2022-07-29T08:26:50;19.70;21.90
41939;DHT22;23057;48.554;14.454;2022-07-29T08:29:21;19.70;82.50
41939;DHT22;23057;48.554;14.454;2022-07-29T08:31:52;19.70;94.90
41939;DHT22;23057;48.554;14.454;2022-07-29T08:34:23;19.80;42.30
41939;DHT22;23057;48.554;14.454;2022-07-29T08:36:54;19.90;28.60
41939;DHT22;23057;48.554;14.454;2022-07-29T08:39:26;20.10;1.00
41939;DHT22;23057;48.554;14.454;2022-07-29T08:41:57;20.20;1.00
41939;DHT22;23057;48.554;14.454;2022-07-29T08:44:28;20.30;3.50
41939;DHT22;23057;48.554;14.454;2022-07-29T08:46:59;20.40;20.90
41939;DHT22;23057;48.554;14.454;2022-07-29T08:49:32;20.50;1.00
41939;DHT22;23057;48.554;14.454;2022-07-29T08:52:05;20.50;1.00
41939;DHT22;23057;48.554;14.454;2022-07-29T08:54:37;20.40;1.00
41939;DHT22;23057;48.554;14.454;2022-07-29T08:57:13;20.60;1.00
41939;DHT22;23057;48.554;14.454;2022-07-29T08:59:46;20.70;1.00
41939;DHT22;23057;48.554;14.454;2022-07-29T09:02:20;20.30;1.00
41939;DHT22;23057;48.554;14.454;2022-07-29T09:04:53;20.20;1.00
41939;DHT22;23057;48.554;14.454;2022-07-29T09:07:25;20.20;1.00
41939;DHT22;23057;48.554;14.454;2022-07-29T09:09:55;20.30;1.00
41939;DHT22;23057;48.554;14.454;2022-07-29T09:12:26;20.50;1.00
41939;DHT22;23057;48.554;14.454;2022-07-29T09:14:59;20.70;1.00
41939;DHT22;23057;48.554;14.454;2022-07-29T09:17:42;20.80;1.00
41939;DHT22;23057;48.554;14.454;2022-07-29T09:20:22;20.70;1.00
41939;DHT22;23057;48.554;14.454;2022-07-29T09:22:54;20.60;16.90
41939;DHT22;23057;48.554;14.454;2022-07-29T09:25:58;20.60;1.00
41939;DHT22;23057;48.554;14.454;2022-07-29T09:28:22;20.80;10.20
41939;DHT22;23057;48.554;14.454;2022-07-29T09:30:56;21.20;1.00
41939;DHT22;23057;48.554;14.454;2022-07-29T09:33:32;21.60;1.00
41939;DHT22;23057;48.554;14.454;2022-07-29T09:36:10;22.00;1.00
41939;DHT22;23057;48.554;14.454;2022-07-29T09:38:42;21.90;1.00
41939;DHT22;23057;48.554;14.454;2022-07-29T09:41:12;21.90;1.00
41939;DHT22;23057;48.554;14.454;2022-07-29T09:43:53;21.30;1.00
41939;DHT22;23057;48.554;14.454;2022-07-29T09:46:28;21.60;1.00
41939;DHT22;23057;48.554;14.454;2022-07-29T09:49:06;21.70;1.00
41939;DHT22;23057;48.554;14.454;2022-07-29T09:51:42;22.10;1.00
41939;DHT22;23057;48.554;14.454;2022-07-29T09:54:26;22.50;1.00
41939;DHT22;23057;48.554;14.454;2022-07-29T09:56:58;22.70;1.00
41939;DHT22;23057;48.554;14.454;2022-07-29T09:59:29;22.60;99.90
41939;DHT22;23057;48.554;14.454;2022-07-29T10:02:00;22.60;99.90
41939;DHT22;23057;48.554;14.454;2022-07-29T10:04:38;22.90;1.00
41939;DHT22;23057;48.554;14.454;2022-07-29T10:07:10;23.00;99.90
41939;DHT22;23057;48.554;14.454;2022-07-29T10:09:49;23.00;99.90
41939;DHT22;23057;48.554;14.454;2022-07-29T10:12:25;23.00;99.90
41939;DHT22;23057;48.554;14.454;2022-07-29T10:14:56;23.00;99.90
41939;DHT22;23057;48.554;14.454;2022-07-29T10:17:27;23.10;99.90
41939;DHT22;23057;48.554;14.454;2022-07-29T10:19:59;23.20;99.90
41939;DHT22;23057;48.554;14.454;2022-07-29T10:22:30;23.10;1.00
41939;DHT22;23057;48.554;14.454;2022-07-29T10:25:00;23.00;1.00
41939;DHT22;23057;48.554;14.454;2022-07-29T10:27:32;23.20;1.00
41939;DHT22;23057;48.554;14.454;2022-07-29T10:30:03;23.40;1.00
41939;DHT22;23057;48.554;14.454;2022-07-29T10:44:52;23.90;99.90
41939;DHT22;23057;48.554;14.454;2022-07-29T10:47:25;24.00;99.90
41939;DHT22;23057;48.554;14.454;2022-07-29T10:50:02;24.00;99.90
41939;DHT22;23057;48.554;14.454;2022-07-29T10:55:36;23.90;99.90
41939;DHT22;23057;48.554;14.454;2022-07-29T10:58:13;23.90;99.90
41939;DHT22;23057;48.554;14.454;2022-07-29T11:00:53;24.00;99.90
41939;DHT22;23057;48.554;14.454;2022-07-29T11:06:15;24.00;99.90
41939;DHT22;23057;48.554;14.454;2022-07-29T11:08:47;24.30;99.90
41939;DHT22;23057;48.554;14.454;2022-07-29T11:11:49;24.50;99.90
41939;DHT22;23057;48.554;14.454;2022-07-29T11:18:17;24.60;99.90
41939;DHT22;23057;48.554;14.454;2022-07-29T11:20:39;24.90;99.90
41939;DHT22;23057;48.554;14.454;2022-07-29T11:23:34;24.90;99.90
41939;DHT22;23057;48.554;14.454;2022-07-29T11:34:20;25.60;99.90
41939;DHT22;23057;48.554;14.454;2022-07-29T11:39:40;25.70;99.90
41939;DHT22;23057;48.554;14.454;2022-07-29T11:47:48;25.40;99.90
41939;DHT22;23057;48.554;14.454;2022-07-29T11:50:27;26.40;99.90
41939;DHT22;23057;48.554;14.454;2022-07-29T11:53:10;26.70;99.90
41939;DHT22;23057;48.554;14.454;2022-07-29T11:55:44;26.30;99.90
41939;DHT22;23057;48.554;14.454;2022-07-29T11:58:14;26.20;99.90
41939;DHT22;23057;48.554;14.454;2022-07-29T12:00:53;25.90;99.90
41939;DHT22;23057;48.554;14.454;2022-07-29T12:03:25;26.00;99.90
41939;DHT22;23057;48.554;14.454;2022-07-29T12:05:59;26.40;99.90
41939;DHT22;23057;48.554;14.454;2022-07-29T12:08:29;26.50;99.90
41939;DHT22;23057;48.554;14.454;2022-07-29T12:11:00;26.60;99.90
41939;DHT22;23057;48.554;14.454;2022-07-29T12:13:38;26.80;99.90
41939;DHT22;23057;48.554;14.454;2022-07-29T12:16:09;27.20;99.90
41939;DHT22;23057;48.554;14.454;2022-07-29T12:18:40;27.50;99.90
41939;DHT22;23057;48.554;14.454;2022-07-29T12:21:11;27.90;99.90
41939;DHT22;23057;48.554;14.454;2022-07-29T12:23:42;27.90;99.90
41939;DHT22;23057;48.554;14.454;2022-07-29T12:26:24;28.20;99.90
41939;DHT22;23057;48.554;14.454;2022-07-29T12:28:55;28.30;99.90
41939;DHT22;23057;48.554;14.454;2022-07-29T12:31:26;27.60;99.90
41939;DHT22;23057;48.554;14.454;2022-07-29T12:33:57;27.30;99.90
41939;DHT22;23057;48.554;14.454;2022-07-29T12:36:28;27.30;99.90
41939;DHT22;23057;48.554;14.454;2022-07-29T12:38:59;27.40;99.90
41939;DHT22;23057;48.554;14.454;2022-07-29T12:41:30;27.40;99.90
41939;DHT22;23057;48.554;14.454;2022-07-29T12:44:02;27.70;99.90
41939;DHT22;23057;48.554;14.454;2022-07-29T12:46:33;27.80;99.90
41939;DHT22;23057;48.554;14.454;2022-07-29T12:49:04;27.60;99.90
41939;DHT22;23057;48.554;14.454;2022-07-29T12:51:36;27.70;99.90
41939;DHT22;23057;48.554;14.454;2022-07-29T12:54:10;27.40;99.90
41939;DHT22;23057;48.554;14.454;2022-07-29T12:56:45;27.10;99.90
41939;DHT22;23057;48.554;14.454;2022-07-29T12:59:20;27.60;99.90
41939;DHT22;23057;48.554;14.454;2022-07-29T13:01:53;27.20;99.90
41939;DHT22;23057;48.554;14.454;2022-07-29T13:04:27;27.80;99.90
41939;DHT22;23057;48.554;14.454;2022-07-29T13:07:03;28.00;99.90
41939;DHT22;23057;48.554;14.454;2022-07-29T13:09:41;27.90;99.90
41939;DHT22;23057;48.554;14.454;2022-07-29T13:12:15;27.90;99.90
41939;DHT22;23057;48.554;14.454;2022-07-29T13:14:47;27.90;99.90
41939;DHT22;23057;48.554;14.454;2022-07-29T13:17:21;27.30;99.90
41939;DHT22;23057;48.554;14.454;2022-07-29T13:20:04;27.50;99.90
41939;DHT22;23057;48.554;14.454;2022-07-29T13:22:39;27.50;99.90
41939;DHT22;23057;48.554;14.454;2022-07-29T13:25:12;27.60;99.90
41939;DHT22;23057;48.554;14.454;2022-07-29T13:27:43;27.80;99.90
41939;DHT22;23057;48.554;14.454;2022-07-29T13:30:15;27.90;99.90
41939;DHT22;23057;48.554;14.454;2022-07-29T13:32:46;28.00;99.90
41939;DHT22;23057;48.554;14.454;2022-07-29T13:35:18;28.00;99.90
41939;DHT22;23057;48.554;14.454;2022-07-29T13:37:50;28.00;99.90
41939;DHT22;23057;48.554;14.454;2022-07-29T13:40:21;27.60;99.90
41939;DHT22;23057;48.554;14.454;2022-07-29T13:42:52;27.80;99.90
41939;DHT22;23057;48.554;14.454;2022-07-29T13:45:22;28.00;99.90
41939;DHT22;23057;48.554;14.454;2022-07-29T13:47:53;27.80;99.90
41939;DHT22;23057;48.554;14.454;2022-07-29T13:50:24;28.10;99.90
41939;DHT22;23057;48.554;14.454;2022-07-29T13:52:55;28.40;99.90
41939;DHT22;23057;48.554;14.454;2022-07-29T13:55:26;27.90;99.90
41939;DHT22;23057;48.554;14.454;2022-07-29T13:57:56;27.50;99.90
41939;DHT22;23057;48.554;14.454;2022-07-29T14:00:27;27.10;99.90
41939;DHT22;23057;48.554;14.454;2022-07-29T14:02:58;26.90;99.90
41939;DHT22;23057;48.554;14.454;2022-07-29T14:05:29;27.10;99.90
41939;DHT22;23057;48.554;14.454;2022-07-29T14:08:00;27.30;99.90
41939;DHT22;23057;48.554;14.454;2022-07-29T14:10:31;27.50;99.90
41939;DHT22;23057;48.554;14.454;2022-07-29T14:13:01;27.60;99.90
41939;DHT22;23057;48.554;14.454;2022-07-29T14:15:32;27.60;99.90
41939;DHT22;23057;48.554;14.454;2022-07-29T14:18:03;27.40;99.90
41939;DHT22;23057;48.554;14.454;2022-07-29T14:20:34;27.00;99.90
41939;DHT22;23057;48.554;14.454;2022-07-29T14:23:05;27.20;99.90
41939;DHT22;23057;48.554;14.454;2022-07-29T14:25:36;27.70;99.90
41939;DHT22;23057;48.554;14.454;2022-07-29T14:28:06;27.80;99.90
41939;DHT22;23057;48.554;14.454;2022-07-29T14:30:37;27.60;99.90
41939;DHT22;23057;48.554;14.454;2022-07-29T14:33:08;27.60;99.90
41939;DHT22;23057;48.554;14.454;2022-07-29T14:35:39;27.30;99.90
41939;DHT22;23057;48.554;14.454;2022-07-29T14:38:10;27.50;99.90
41939;DHT22;23057;48.554;14.454;2022-07-29T14:40:41;27.60;99.90
41939;DHT22;23057;48.554;14.454;2022-07-29T14:43:12;27.80;99.90
41939;DHT22;23057;48.554;14.454;2022-07-29T14:45:44;27.80;99.90
41939;DHT22;23057;48.554;14.454;2022-07-29T14:48:15;27.70;99.90
41939;DHT22;23057;48.554;14.454;2022-07-29T14:50:45;27.80;99.90
41939;DHT22;23057;48.554;14.454;2022-07-29T14:53:16;28.00;99.90
41939;DHT22;23057;48.554;14.454;2022-07-29T14:55:48;28.10;99.90
41939;DHT22;23057;48.554;14.454;2022-07-29T14:58:19;28.00;99.90
41939;DHT22;23057;48.554;14.454;2022-07-29T15:00:52;27.90;99.90
41939;DHT22;23057;48.554;14.454;2022-07-29T15:03:24;28.00;99.90
41939;DHT22;23057;48.554;14.454;2022-07-29T15:05:55;28.00;99.90
41939;DHT22;23057;48.554;14.454;2022-07-29T15:08:26;27.90;99.90
41939;DHT22;23057;48.554;14.454;2022-07-29T15:11:00;27.60;99.90
41939;DHT22;23057;48.554;14.454;2022-07-29T15:13:31;27.40;99.90
41939;DHT22;23057;48.554;14.454;2022-07-29T15:16:04;27.60;99.90
41939;DHT22;23057;48.554;14.454;2022-07-29T15:18:35;27.70;99.90
41939;DHT22;23057;48.554;14.454;2022-07-29T15:21:08;27.60;99.90
41939;DHT22;23057;48.554;14.454;2022-07-29T15:23:39;27.60;99.90
41939;DHT22;23057;48.554;14.454;2022-07-29T15:26:10;27.80;99.90
41939;DHT22;23057;48.554;14.454;2022-07-29T15:28:40;27.80;99.90
41939;DHT22;23057;48.554;14.454;2022-07-29T15:31:11;27.50;99.90
41939;DHT22;23057;48.554;14.454;2022-07-29T15:33:42;27.50;99.90
41939;DHT22;23057;48.554;14.454;2022-07-29T15:36:13;27.30;99.90
41939;DHT22;23057;48.554;14.454;2022-07-29T15:38:44;27.20;99.90
41939;DHT22;23057;48.554;14.454;2022-07-29T15:41:15;27.30;99.90
41939;DHT22;23057;48.554;14.454;2022-07-29T15:43:46;27.40;99.90
41939;DHT22;23057;48.554;14.454;2022-07-29T15:46:18;27.30;99.90
41939;DHT22;23057;48.554;14.454;2022-07-29T15:49:08;27.20;99.90
41939;DHT22;23057;48.554;14.454;2022-07-29T15:51:39;27.20;99.90
41939;DHT22;23057;48.554;14.454;2022-07-29T15:54:10;27.30;99.90
41939;DHT22;23057;48.554;14.454;2022-07-29T15:56:41;27.30;99.90
41939;DHT22;23057;48.554;14.454;2022-07-29T15:59:11;27.50;99.90
41939;DHT22;23057;48.554;14.454;2022-07-29T16:01:42;27.40;99.90
41939;DHT22;23057;48.554;14.454;2022-07-29T16:04:13;27.10;99.90
41939;DHT22;23057;48.554;14.454;2022-07-29T16:06:46;27.20;99.90
41939;DHT22;23057;48.554;14.454;2022-07-29T16:09:18;27.30;99.90
41939;DHT22;23057;48.554;14.454;2022-07-29T16:11:49;27.20;99.90
41939;DHT22;23057;48.554;14.454;2022-07-29T16:14:22;27.20;99.90
41939;DHT22;23057;48.554;14.454;2022-07-29T16:16:53;27.00;99.90
41939;DHT22;23057;48.554;14.454;2022-07-29T16:19:24;27.00;99.90
41939;DHT22;23057;48.554;14.454;2022-07-29T16:21:55;26.90;99.90
41939;DHT22;23057;48.554;14.454;2022-07-29T16:24:26;26.70;99.90
41939;DHT22;23057;48.554;14.454;2022-07-29T16:26:58;26.30;99.90
41939;DHT22;23057;48.554;14.454;2022-07-29T16:29:29;26.00;99.90
41939;DHT22;23057;48.554;14.454;2022-07-29T16:32:00;25.80;99.90
41939;DHT22;23057;48.554;14.454;2022-07-29T16:34:31;25.80;99.90
41939;DHT22;23057;48.554;14.454;2022-07-29T16:37:02;25.60;99.90
41939;DHT22;23057;48.554;14.454;2022-07-29T16:39:32;25.60;99.90
41939;DHT22;23057;48.554;14.454;2022-07-29T16:42:03;25.80;99.90
41939;DHT22;23057;48.554;14.454;2022-07-29T16:44:34;25.70;99.90